sensor_id;sensor_type;location;lat;lon;timestamp;pressure;altitude;pressure_sealevel;temperature;humidity
56074;BME280;41950;55.840;37.442;2023-05-23T00:01:42;100037.13;;;12.83;82.82
56074;BME280;41950;55.840;37.442;2023-05-23T00:04:09;100049.13;;;12.92;82.92
56074;BME280;41950;55.840;37.442;2023-05-23T00:06:42;100034.56;;;12.82;82.43
56074;BME280;41950;55.840;37.442;2023-05-23T00:09:13;100043.34;;;12.78;82.74
56074;BME280;41950;55.840;37.442;2023-05-23T00:11:39;100030.41;;;12.73;82.72
56074;BME280;41950;55.840;37.442;2023-05-23T00:14:18;100051.00;;;12.84;82.85
56074;BME280;41950;55.840;37.442;2023-05-23T00:16:45;100037.28;;;12.76;82.99
56074;BME280;41950;55.840;37.442;2023-05-23T00:19:14;100022.81;;;12.62;83.08
56074;BME280;41950;55.840;37.442;2023-05-23T00:21:44;100022.00;;;12.60;83.19
56074;BME280;41950;55.840;37.442;2023-05-23T00:24:13;100034.69;;;12.76;83.29
56074;BME280;41950;55.840;37.442;2023-05-23T00:26:43;100040.03;;;12.69;83.25
56074;BME280;41950;55.840;37.442;2023-05-23T00:29:10;100048.66;;;12.72;83.13
56074;BME280;41950;55.840;37.442;2023-05-23T00:31:41;99999.81;;;12.41;83.24
56074;BME280;41950;55.840;37.442;2023-05-23T00:34:16;100021.28;;;12.52;83.30
56074;BME280;41950;55.840;37.442;2023-05-23T00:36:42;100029.91;;;12.54;83.34
56074;BME280;41950;55.840;37.442;2023-05-23T00:39:12;100047.94;;;12.65;83.58
56074;BME280;41950;55.840;37.442;2023-05-23T00:41:50;100035.00;;;12.59;83.72
56074;BME280;41950;55.840;37.442;2023-05-23T00:44:16;100017.06;;;12.47;84.09
56074;BME280;41950;55.840;37.442;2023-05-23T00:46:47;100014.44;;;12.47;83.89
56074;BME280;41950;55.840;37.442;2023-05-23T00:49:14;100035.00;;;12.59;83.74
56074;BME280;41950;55.840;37.442;2023-05-23T00:51:40;100013.59;;;12.46;83.92
56074;BME280;41950;55.840;37.442;2023-05-23T00:54:08;100038.56;;;12.55;83.92
56074;BME280;41950;55.840;37.442;2023-05-23T00:56:35;100037.66;;;12.57;83.80
56074;BME280;41950;55.840;37.442;2023-05-23T00:59:01;100005.19;;;12.30;83.98
56074;BME280;41950;55.840;37.442;2023-05-23T01:01:26;100012.00;;;12.39;83.99
56074;BME280;41950;55.840;37.442;2023-05-23T01:03:52;100019.88;;;12.36;84.26
56074;BME280;41950;55.840;37.442;2023-05-23T01:06:19;100039.56;;;12.49;84.07
56074;BME280;41950;55.840;37.442;2023-05-23T01:08:44;100014.63;;;12.37;83.91
56074;BME280;41950;55.840;37.442;2023-05-23T01:11:27;100022.38;;;12.41;83.78
56074;BME280;41950;55.840;37.442;2023-05-23T01:14:16;100008.63;;;12.32;83.76
56074;BME280;41950;55.840;37.442;2023-05-23T01:16:48;100002.63;;;12.29;83.77
56074;BME280;41950;55.840;37.442;2023-05-23T01:28:00;100022.28;;;12.45;83.71
56074;BME280;41950;55.840;37.442;2023-05-23T01:30:30;99997.38;;;12.32;83.52
56074;BME280;41950;55.840;37.442;2023-05-23T01:32:57;100016.22;;;12.45;83.51
56074;BME280;41950;55.840;37.442;2023-05-23T01:35:24;100011.81;;;12.48;83.66
56074;BME280;41950;55.840;37.442;2023-05-23T01:37:54;99956.84;;;12.20;83.22
56074;BME280;41950;55.840;37.442;2023-05-23T01:40:24;100009.06;;;12.54;83.19
56074;BME280;41950;55.840;37.442;2023-05-23T01:42:51;100028.00;;;12.64;83.35
56074;BME280;41950;55.840;37.442;2023-05-23T01:45:18;99999.50;;;12.56;83.07
56074;BME280;41950;55.840;37.442;2023-05-23T01:47:46;100019.28;;;12.65;82.58
56074;BME280;41950;55.840;37.442;2023-05-23T01:50:15;100016.72;;;12.63;82.80
56074;BME280;41950;55.840;37.442;2023-05-23T01:52:41;99984.88;;;12.49;82.58
56074;BME280;41950;55.840;37.442;2023-05-23T01:55:08;100022.56;;;12.75;82.61
56074;BME280;41950;55.840;37.442;2023-05-23T01:57:37;100014.88;;;12.68;82.33
56074;BME280;41950;55.840;37.442;2023-05-23T02:00:05;100002.94;;;12.57;82.17
56074;BME280;41950;55.840;37.442;2023-05-23T02:02:34;99987.31;;;12.57;82.07
56074;BME280;41950;55.840;37.442;2023-05-23T02:05:00;99996.59;;;12.72;81.86
56074;BME280;41950;55.840;37.442;2023-05-23T02:07:26;100000.00;;;12.74;81.70
56074;BME280;41950;55.840;37.442;2023-05-23T02:09:51;99995.41;;;12.85;81.61
56074;BME280;41950;55.840;37.442;2023-05-23T02:12:17;99987.63;;;12.83;81.30
56074;BME280;41950;55.840;37.442;2023-05-23T02:14:43;100013.25;;;13.03;81.15
56074;BME280;41950;55.840;37.442;2023-05-23T02:17:08;99985.72;;;12.93;81.24
56074;BME280;41950;55.840;37.442;2023-05-23T02:19:35;99985.50;;;13.02;80.47
56074;BME280;41950;55.840;37.442;2023-05-23T02:22:01;100009.59;;;13.12;79.77
56074;BME280;41950;55.840;37.442;2023-05-23T02:24:26;99983.69;;;13.06;79.75
56074;BME280;41950;55.840;37.442;2023-05-23T02:26:52;99967.16;;;13.07;79.01
56074;BME280;41950;55.840;37.442;2023-05-23T02:29:18;99979.94;;;13.19;78.79
56074;BME280;41950;55.840;37.442;2023-05-23T02:31:44;99972.84;;;13.25;78.29
56074;BME280;41950;55.840;37.442;2023-05-23T02:34:09;99999.25;;;13.47;77.75
56074;BME280;41950;55.840;37.442;2023-05-23T02:36:35;99984.59;;;13.42;77.67
56074;BME280;41950;55.840;37.442;2023-05-23T02:39:02;100006.84;;;13.56;77.15
56074;BME280;41950;55.840;37.442;2023-05-23T02:41:28;99992.97;;;13.56;76.79
56074;BME280;41950;55.840;37.442;2023-05-23T02:43:54;100001.41;;;13.66;76.31
56074;BME280;41950;55.840;37.442;2023-05-23T02:46:20;99957.59;;;13.46;76.06
56074;BME280;41950;55.840;37.442;2023-05-23T02:48:45;99964.22;;;13.57;75.25
56074;BME280;41950;55.840;37.442;2023-05-23T02:51:11;99999.38;;;13.78;75.48
56074;BME280;41950;55.840;37.442;2023-05-23T02:53:38;99970.06;;;13.67;75.13
56074;BME280;41950;55.840;37.442;2023-05-23T02:56:04;99980.44;;;13.70;75.11
56074;BME280;41950;55.840;37.442;2023-05-23T02:58:32;99930.00;;;13.36;75.04
56074;BME280;41950;55.840;37.442;2023-05-23T03:01:03;99977.84;;;13.69;74.89
56074;BME280;41950;55.840;37.442;2023-05-23T03:03:29;99985.50;;;13.76;74.12
56074;BME280;41950;55.840;37.442;2023-05-23T03:05:58;99972.47;;;13.76;73.63
56074;BME280;41950;55.840;37.442;2023-05-23T03:08:23;99989.41;;;13.92;73.51
56074;BME280;41950;55.840;37.442;2023-05-23T03:10:49;99967.94;;;13.83;73.12
56074;BME280;41950;55.840;37.442;2023-05-23T03:13:15;99956.66;;;13.82;72.88
56074;BME280;41950;55.840;37.442;2023-05-23T03:15:41;100004.47;;;14.15;72.55
56074;BME280;41950;55.840;37.442;2023-05-23T03:18:07;99986.50;;;14.05;72.26
56074;BME280;41950;55.840;37.442;2023-05-23T03:20:33;99968.59;;;13.91;72.09
56074;BME280;41950;55.840;37.442;2023-05-23T03:22:58;99978.75;;;14.02;71.53
56074;BME280;41950;55.840;37.442;2023-05-23T03:25:24;100017.31;;;14.23;71.51
56074;BME280;41950;55.840;37.442;2023-05-23T03:27:50;99990.56;;;14.15;71.23
56074;BME280;41950;55.840;37.442;2023-05-23T03:30:16;99971.00;;;13.99;70.62
56074;BME280;41950;55.840;37.442;2023-05-23T03:32:42;99984.50;;;14.14;70.42
56074;BME280;41950;55.840;37.442;2023-05-23T03:35:08;99995.53;;;14.24;70.11
56074;BME280;41950;55.840;37.442;2023-05-23T03:37:33;99983.38;;;14.23;69.69
56074;BME280;41950;55.840;37.442;2023-05-23T03:39:59;99995.06;;;14.41;69.73
56074;BME280;41950;55.840;37.442;2023-05-23T03:42:27;99999.81;;;14.59;69.56
56074;BME280;41950;55.840;37.442;2023-05-23T03:44:52;99980.00;;;14.52;69.29
56074;BME280;41950;55.840;37.442;2023-05-23T03:47:18;99961.22;;;14.38;69.12
56074;BME280;41950;55.840;37.442;2023-05-23T03:49:44;99985.09;;;14.57;68.22
56074;BME280;41950;55.840;37.442;2023-05-23T03:52:10;100010.69;;;14.75;68.14
56074;BME280;41950;55.840;37.442;2023-05-23T03:54:36;99990.81;;;14.69;68.08
56074;BME280;41950;55.840;37.442;2023-05-23T03:57:02;100003.59;;;14.80;68.35
56074;BME280;41950;55.840;37.442;2023-05-23T03:59:28;99979.28;;;14.76;67.79
56074;BME280;41950;55.840;37.442;2023-05-23T04:01:53;99994.19;;;15.02;67.24
56074;BME280;41950;55.840;37.442;2023-05-23T04:04:19;99993.09;;;15.09;67.42
56074;BME280;41950;55.840;37.442;2023-05-23T04:06:46;99982.47;;;15.15;67.16
56074;BME280;41950;55.840;37.442;2023-05-23T04:09:12;99986.22;;;15.33;66.60
56074;BME280;41950;55.840;37.442;2023-05-23T04:11:39;99975.75;;;15.35;66.21
56074;BME280;41950;55.840;37.442;2023-05-23T04:14:04;99928.09;;;15.25;65.92
56074;BME280;41950;55.840;37.442;2023-05-23T04:16:30;99968.81;;;15.62;65.27
56074;BME280;41950;55.840;37.442;2023-05-23T04:18:58;99959.34;;;15.56;65.18
56074;BME280;41950;55.840;37.442;2023-05-23T04:21:24;99963.56;;;15.62;65.13
56074;BME280;41950;55.840;37.442;2023-05-23T04:23:49;99958.59;;;15.53;64.73
56074;BME280;41950;55.840;37.442;2023-05-23T04:26:16;99976.66;;;15.60;64.82
56074;BME280;41950;55.840;37.442;2023-05-23T04:28:43;99944.84;;;15.46;65.17
56074;BME280;41950;55.840;37.442;2023-05-23T04:31:11;99958.00;;;15.44;65.62
56074;BME280;41950;55.840;37.442;2023-05-23T04:33:37;99975.09;;;15.55;65.57
56074;BME280;41950;55.840;37.442;2023-05-23T04:36:03;99970.91;;;15.49;65.90
56074;BME280;41950;55.840;37.442;2023-05-23T04:38:29;99965.28;;;15.35;66.15
56074;BME280;41950;55.840;37.442;2023-05-23T04:40:55;99957.78;;;15.24;66.92
56074;BME280;41950;55.840;37.442;2023-05-23T04:43:22;99976.69;;;15.32;67.12
56074;BME280;41950;55.840;37.442;2023-05-23T04:45:51;100005.44;;;15.32;67.55
56074;BME280;41950;55.840;37.442;2023-05-23T04:48:19;99979.84;;;15.15;67.80
56074;BME280;41950;55.840;37.442;2023-05-23T04:50:46;99971.00;;;15.20;67.69
56074;BME280;41950;55.840;37.442;2023-05-23T04:53:13;99983.25;;;15.45;67.10
56074;BME280;41950;55.840;37.442;2023-05-23T04:55:38;99985.25;;;15.65;66.41
56074;BME280;41950;55.840;37.442;2023-05-23T04:58:04;99961.47;;;15.71;65.63
56074;BME280;41950;55.840;37.442;2023-05-23T05:00:30;99974.44;;;16.01;65.34
56074;BME280;41950;55.840;37.442;2023-05-23T05:02:56;99989.34;;;16.24;65.08
56074;BME280;41950;55.840;37.442;2023-05-23T05:05:24;99984.44;;;16.38;63.92
56074;BME280;41950;55.840;37.442;2023-05-23T05:07:49;99997.69;;;16.58;63.68
56074;BME280;41950;55.840;37.442;2023-05-23T05:10:15;99999.00;;;16.70;63.34
56074;BME280;41950;55.840;37.442;2023-05-23T05:12:46;99970.31;;;16.67;62.61
56074;BME280;41950;55.840;37.442;2023-05-23T05:15:16;99959.75;;;16.68;62.64
56074;BME280;41950;55.840;37.442;2023-05-23T05:17:42;99969.06;;;16.77;63.13
56074;BME280;41950;55.840;37.442;2023-05-23T05:20:09;99994.28;;;17.03;62.48
56074;BME280;41950;55.840;37.442;2023-05-23T05:22:36;99996.97;;;17.02;62.37
56074;BME280;41950;55.840;37.442;2023-05-23T05:25:08;100007.03;;;17.12;61.94
56074;BME280;41950;55.840;37.442;2023-05-23T05:27:34;99987.75;;;17.13;61.80
56074;BME280;41950;55.840;37.442;2023-05-23T05:30:08;99997.34;;;17.14;61.55
56074;BME280;41950;55.840;37.442;2023-05-23T05:32:34;99994.28;;;17.25;61.28
56074;BME280;41950;55.840;37.442;2023-05-23T05:35:00;100003.88;;;17.26;60.78
56074;BME280;41950;55.840;37.442;2023-05-23T05:37:26;99952.59;;;16.95;60.60
56074;BME280;41950;55.840;37.442;2023-05-23T05:39:53;100005.41;;;17.32;60.47
56074;BME280;41950;55.840;37.442;2023-05-23T05:42:20;99989.72;;;17.30;60.25
56074;BME280;41950;55.840;37.442;2023-05-23T05:44:46;99971.53;;;17.25;59.46
56074;BME280;41950;55.840;37.442;2023-05-23T05:47:12;100008.03;;;17.53;59.64
56074;BME280;41950;55.840;37.442;2023-05-23T05:49:38;99999.34;;;17.51;60.02
56074;BME280;41950;55.840;37.442;2023-05-23T05:52:05;100000.94;;;17.55;59.95
56074;BME280;41950;55.840;37.442;2023-05-23T05:54:31;99990.69;;;17.49;60.36
56074;BME280;41950;55.840;37.442;2023-05-23T05:56:57;100012.16;;;17.59;60.21
56074;BME280;41950;55.840;37.442;2023-05-23T05:59:23;100011.44;;;17.55;60.77
56074;BME280;41950;55.840;37.442;2023-05-23T06:01:49;99966.13;;;17.30;60.52
56074;BME280;41950;55.840;37.442;2023-05-23T06:04:16;100014.84;;;17.36;60.83
56074;BME280;41950;55.840;37.442;2023-05-23T06:06:42;99977.44;;;17.09;60.84
56074;BME280;41950;55.840;37.442;2023-05-23T06:09:08;99986.22;;;17.08;61.02
56074;BME280;41950;55.840;37.442;2023-05-23T06:11:33;99977.69;;;17.03;61.28
56074;BME280;41950;55.840;37.442;2023-05-23T06:14:02;99951.69;;;16.96;60.31
56074;BME280;41950;55.840;37.442;2023-05-23T06:16:28;99987.91;;;17.32;60.40
56074;BME280;41950;55.840;37.442;2023-05-23T06:18:53;99994.94;;;17.52;59.57
56074;BME280;41950;55.840;37.442;2023-05-23T06:21:19;99977.31;;;17.55;58.92
56074;BME280;41950;55.840;37.442;2023-05-23T06:23:45;99914.31;;;17.35;58.97
56074;BME280;41950;55.840;37.442;2023-05-23T06:26:10;99970.28;;;17.78;59.02
56074;BME280;41950;55.840;37.442;2023-05-23T06:28:37;99965.56;;;17.86;58.81
56074;BME280;41950;55.840;37.442;2023-05-23T06:31:04;99968.19;;;17.86;58.59
56074;BME280;41950;55.840;37.442;2023-05-23T06:33:31;99967.47;;;17.82;58.55
56074;BME280;41950;55.840;37.442;2023-05-23T06:35:57;99950.38;;;17.72;59.09
56074;BME280;41950;55.840;37.442;2023-05-23T06:38:22;99969.72;;;17.91;59.24
56074;BME280;41950;55.840;37.442;2023-05-23T06:40:48;99957.94;;;18.00;59.04
56074;BME280;41950;55.840;37.442;2023-05-23T06:43:14;99955.50;;;18.16;59.32
56074;BME280;41950;55.840;37.442;2023-05-23T06:45:39;99942.34;;;18.36;58.32
56074;BME280;41950;55.840;37.442;2023-05-23T06:48:05;99944.19;;;18.53;58.58
56074;BME280;41950;55.840;37.442;2023-05-23T06:50:31;99958.44;;;18.87;57.76
56074;BME280;41950;55.840;37.442;2023-05-23T06:52:57;99965.19;;;19.11;56.84
56074;BME280;41950;55.840;37.442;2023-05-23T06:55:22;99927.19;;;19.17;56.05
56074;BME280;41950;55.840;37.442;2023-05-23T06:57:48;99922.28;;;19.28;55.68
56074;BME280;41950;55.840;37.442;2023-05-23T07:00:17;99907.38;;;19.45;55.86
56074;BME280;41950;55.840;37.442;2023-05-23T07:02:43;99922.16;;;19.65;54.12
56074;BME280;41950;55.840;37.442;2023-05-23T07:05:18;99919.69;;;19.80;54.27
56074;BME280;41950;55.840;37.442;2023-05-23T07:07:44;99921.16;;;20.02;54.15
56074;BME280;41950;55.840;37.442;2023-05-23T07:10:09;99909.88;;;20.16;53.35
56074;BME280;41950;55.840;37.442;2023-05-23T07:12:35;99921.69;;;20.42;53.14
56074;BME280;41950;55.840;37.442;2023-05-23T07:15:01;99928.63;;;20.60;52.98
56074;BME280;41950;55.840;37.442;2023-05-23T07:17:28;99905.41;;;20.34;53.04
56074;BME280;41950;55.840;37.442;2023-05-23T07:19:55;99917.59;;;20.19;52.59
56074;BME280;41950;55.840;37.442;2023-05-23T07:22:21;99926.59;;;20.15;53.36
56074;BME280;41950;55.840;37.442;2023-05-23T07:24:46;99916.22;;;20.12;52.33
56074;BME280;41950;55.840;37.442;2023-05-23T07:27:12;99899.69;;;20.26;52.39
56074;BME280;41950;55.840;37.442;2023-05-23T07:29:38;99908.00;;;20.51;52.65
56074;BME280;41950;55.840;37.442;2023-05-23T07:32:04;99909.38;;;20.74;51.87
56074;BME280;41950;55.840;37.442;2023-05-23T07:34:30;99885.91;;;20.70;50.93
56074;BME280;41950;55.840;37.442;2023-05-23T07:36:55;99894.31;;;20.92;51.30
56074;BME280;41950;55.840;37.442;2023-05-23T07:39:21;99928.34;;;21.28;50.75
56074;BME280;41950;55.840;37.442;2023-05-23T07:41:49;99898.63;;;21.24;49.86
56074;BME280;41950;55.840;37.442;2023-05-23T07:44:16;99886.19;;;21.26;49.28
56074;BME280;41950;55.840;37.442;2023-05-23T07:46:42;99912.50;;;21.58;49.39
56074;BME280;41950;55.840;37.442;2023-05-23T07:49:08;99900.03;;;21.46;50.09
56074;BME280;41950;55.840;37.442;2023-05-23T07:51:34;99897.22;;;21.49;50.35
56074;BME280;41950;55.840;37.442;2023-05-23T07:54:00;99911.84;;;21.54;49.87
56074;BME280;41950;55.840;37.442;2023-05-23T07:56:26;99903.75;;;21.57;48.02
56074;BME280;41950;55.840;37.442;2023-05-23T07:58:51;99922.03;;;21.60;49.19
56074;BME280;41950;55.840;37.442;2023-05-23T08:01:17;99914.53;;;21.69;49.40
56074;BME280;41950;55.840;37.442;2023-05-23T08:03:43;99899.72;;;21.66;48.71
56074;BME280;41950;55.840;37.442;2023-05-23T08:06:09;99915.66;;;21.65;48.06
56074;BME280;41950;55.840;37.442;2023-05-23T08:08:35;99922.13;;;21.59;47.32
56074;BME280;41950;55.840;37.442;2023-05-23T08:11:01;99925.63;;;21.59;47.17
56074;BME280;41950;55.840;37.442;2023-05-23T08:13:27;99935.41;;;21.73;47.37
56074;BME280;41950;55.840;37.442;2023-05-23T08:15:53;99931.34;;;21.82;47.49
56074;BME280;41950;55.840;37.442;2023-05-23T08:18:19;99916.34;;;21.68;46.58
56074;BME280;41950;55.840;37.442;2023-05-23T08:20:44;99895.16;;;21.54;46.02
56074;BME280;41950;55.840;37.442;2023-05-23T08:23:10;99924.72;;;21.75;46.30
56074;BME280;41950;55.840;37.442;2023-05-23T08:25:38;99929.34;;;21.71;46.87
56074;BME280;41950;55.840;37.442;2023-05-23T08:28:04;99893.72;;;21.48;48.27
56074;BME280;41950;55.840;37.442;2023-05-23T08:30:30;99914.41;;;21.56;48.26
56074;BME280;41950;55.840;37.442;2023-05-23T08:32:59;99913.50;;;21.71;48.85
56074;BME280;41950;55.840;37.442;2023-05-23T08:35:25;99931.16;;;21.85;49.32
56074;BME280;41950;55.840;37.442;2023-05-23T08:37:53;99918.91;;;21.84;49.07
56074;BME280;41950;55.840;37.442;2023-05-23T08:40:23;99932.56;;;22.06;50.12
56074;BME280;41950;55.840;37.442;2023-05-23T08:42:50;99908.06;;;22.03;49.26
56074;BME280;41950;55.840;37.442;2023-05-23T08:45:16;99923.41;;;22.12;49.13
56074;BME280;41950;55.840;37.442;2023-05-23T08:47:44;99892.59;;;21.97;49.32
56074;BME280;41950;55.840;37.442;2023-05-23T08:50:14;99916.22;;;22.14;48.59
56074;BME280;41950;55.840;37.442;2023-05-23T08:52:50;99917.72;;;22.18;48.58
56074;BME280;41950;55.840;37.442;2023-05-23T08:55:19;99887.72;;;22.05;48.60
56074;BME280;41950;55.840;37.442;2023-05-23T08:57:46;99895.06;;;22.14;48.66
56074;BME280;41950;55.840;37.442;2023-05-23T09:00:13;99892.81;;;22.22;48.20
56074;BME280;41950;55.840;37.442;2023-05-23T09:02:44;99894.03;;;22.16;48.62
56074;BME280;41950;55.840;37.442;2023-05-23T09:05:11;99905.84;;;22.11;48.23
56074;BME280;41950;55.840;37.442;2023-05-23T09:07:40;99919.34;;;22.06;48.27
56074;BME280;41950;55.840;37.442;2023-05-23T09:10:07;99912.34;;;22.05;48.38
56074;BME280;41950;55.840;37.442;2023-05-23T09:12:35;99918.88;;;22.28;47.84
56074;BME280;41950;55.840;37.442;2023-05-23T09:15:05;99857.41;;;22.10;48.71
56074;BME280;41950;55.840;37.442;2023-05-23T09:17:35;99905.44;;;22.45;49.17
56074;BME280;41950;55.840;37.442;2023-05-23T09:20:12;99897.69;;;22.57;49.31
56074;BME280;41950;55.840;37.442;2023-05-23T09:22:44;99893.59;;;22.65;49.62
56074;BME280;41950;55.840;37.442;2023-05-23T09:25:10;99915.81;;;22.77;50.12
56074;BME280;41950;55.840;37.442;2023-05-23T09:27:36;99926.41;;;22.77;50.46
56074;BME280;41950;55.840;37.442;2023-05-23T09:30:09;99929.50;;;22.69;51.05
56074;BME280;41950;55.840;37.442;2023-05-23T09:32:36;99932.75;;;22.46;51.10
56074;BME280;41950;55.840;37.442;2023-05-23T09:35:04;99944.25;;;22.45;51.28
56074;BME280;41950;55.840;37.442;2023-05-23T09:37:42;99926.59;;;22.45;50.89
56074;BME280;41950;55.840;37.442;2023-05-23T09:40:12;99940.03;;;22.57;51.05
56074;BME280;41950;55.840;37.442;2023-05-23T09:42:46;99894.34;;;22.26;50.75
56074;BME280;41950;55.840;37.442;2023-05-23T09:45:13;99914.16;;;22.19;51.09
56074;BME280;41950;55.840;37.442;2023-05-23T09:47:49;99913.84;;;22.09;51.17
56074;BME280;41950;55.840;37.442;2023-05-23T09:50:16;99903.38;;;22.36;51.94
56074;BME280;41950;55.840;37.442;2023-05-23T09:52:41;99905.94;;;22.52;50.30
56074;BME280;41950;55.840;37.442;2023-05-23T09:55:08;99865.44;;;22.23;50.39
56074;BME280;41950;55.840;37.442;2023-05-23T09:57:34;99945.69;;;23.20;50.94
56074;BME280;41950;55.840;37.442;2023-05-23T10:00:03;99917.66;;;23.70;49.46
56074;BME280;41950;55.840;37.442;2023-05-23T10:08:37;99954.81;;;23.02;48.93
56074;BME280;41950;55.840;37.442;2023-05-23T10:13:46;99943.63;;;22.27;51.53
56074;BME280;41950;55.840;37.442;2023-05-23T10:16:29;99929.22;;;22.03;51.62
56074;BME280;41950;55.840;37.442;2023-05-23T10:19:18;99950.38;;;22.03;53.34
56074;BME280;41950;55.840;37.442;2023-05-23T10:21:49;99941.34;;;21.91;53.09
56074;BME280;41950;55.840;37.442;2023-05-23T10:24:15;99959.09;;;21.89;53.50
56074;BME280;41950;55.840;37.442;2023-05-23T10:26:42;99963.06;;;21.82;54.44
56074;BME280;41950;55.840;37.442;2023-05-23T10:29:09;99955.59;;;21.74;54.48
56074;BME280;41950;55.840;37.442;2023-05-23T10:31:35;99959.72;;;21.64;54.65
56074;BME280;41950;55.840;37.442;2023-05-23T10:34:18;99958.00;;;21.63;54.80
56074;BME280;41950;55.840;37.442;2023-05-23T10:36:58;99973.16;;;21.59;55.39
56074;BME280;41950;55.840;37.442;2023-05-23T10:42:22;99953.28;;;21.22;56.85
56074;BME280;41950;55.840;37.442;2023-05-23T10:44:51;99955.78;;;21.10;58.20
56074;BME280;41950;55.840;37.442;2023-05-23T10:47:26;99974.16;;;20.95;58.42
56074;BME280;41950;55.840;37.442;2023-05-23T10:49:55;99955.47;;;20.51;58.75
56074;BME280;41950;55.840;37.442;2023-05-23T10:52:23;99952.69;;;20.37;60.27
56074;BME280;41950;55.840;37.442;2023-05-23T10:54:53;99978.19;;;20.36;60.47
56074;BME280;41950;55.840;37.442;2023-05-23T10:57:29;99956.88;;;20.24;61.30
56074;BME280;41950;55.840;37.442;2023-05-23T10:59:55;99964.63;;;20.27;61.81
56074;BME280;41950;55.840;37.442;2023-05-23T11:02:28;99973.22;;;20.48;61.16
56074;BME280;41950;55.840;37.442;2023-05-23T11:05:19;99972.28;;;20.49;62.79
56074;BME280;41950;55.840;37.442;2023-05-23T11:08:05;99971.44;;;20.48;63.49
56074;BME280;41950;55.840;37.442;2023-05-23T11:10:32;99955.97;;;20.25;64.80
56074;BME280;41950;55.840;37.442;2023-05-23T11:13:07;99955.50;;;20.17;64.85
56074;BME280;41950;55.840;37.442;2023-05-23T11:15:41;99937.25;;;19.96;65.12
56074;BME280;41950;55.840;37.442;2023-05-23T11:18:09;99979.47;;;19.95;66.69
56074;BME280;41950;55.840;37.442;2023-05-23T11:20:36;99951.91;;;19.67;67.35
56074;BME280;41950;55.840;37.442;2023-05-23T11:23:06;99952.53;;;19.55;68.38
56074;BME280;41950;55.840;37.442;2023-05-23T11:25:49;99953.09;;;19.43;69.51
56074;BME280;41950;55.840;37.442;2023-05-23T11:28:15;99935.25;;;19.13;70.61
56074;BME280;41950;55.840;37.442;2023-05-23T11:30:42;99960.84;;;19.10;71.72
56074;BME280;41950;55.840;37.442;2023-05-23T11:33:10;99969.03;;;19.04;73.34
56074;BME280;41950;55.840;37.442;2023-05-23T11:35:46;99972.09;;;18.95;74.25
56074;BME280;41950;55.840;37.442;2023-05-23T11:38:15;99982.88;;;18.89;74.43
56074;BME280;41950;55.840;37.442;2023-05-23T11:40:45;99979.91;;;18.77;74.59
56074;BME280;41950;55.840;37.442;2023-05-23T11:43:16;99963.66;;;18.49;75.54
56074;BME280;41950;55.840;37.442;2023-05-23T11:45:45;99949.84;;;18.25;76.07
56074;BME280;41950;55.840;37.442;2023-05-23T11:48:15;100000.75;;;18.43;76.88
56074;BME280;41950;55.840;37.442;2023-05-23T11:50:49;99970.28;;;18.18;77.28
56074;BME280;41950;55.840;37.442;2023-05-23T11:53:17;99990.75;;;18.31;78.17
56074;BME280;41950;55.840;37.442;2023-05-23T11:56:03;99965.31;;;18.12;78.53
56074;BME280;41950;55.840;37.442;2023-05-23T11:58:38;99995.38;;;18.26;78.83
56074;BME280;41950;55.840;37.442;2023-05-23T12:01:10;99969.72;;;18.12;78.99
56074;BME280;41950;55.840;37.442;2023-05-23T12:03:46;99988.59;;;18.20;79.79
56074;BME280;41950;55.840;37.442;2023-05-23T12:06:17;99971.13;;;17.99;80.14
56074;BME280;41950;55.840;37.442;2023-05-23T12:08:43;99959.28;;;17.90;80.07
56074;BME280;41950;55.840;37.442;2023-05-23T12:11:09;99938.66;;;17.81;80.59
56074;BME280;41950;55.840;37.442;2023-05-23T12:13:36;99957.44;;;17.92;80.78
56074;BME280;41950;55.840;37.442;2023-05-23T12:16:02;99954.94;;;17.89;80.56
56074;BME280;41950;55.840;37.442;2023-05-23T12:18:31;99955.66;;;17.92;80.66
56074;BME280;41950;55.840;37.442;2023-05-23T12:21:01;99952.97;;;17.94;80.80
56074;BME280;41950;55.840;37.442;2023-05-23T12:23:28;99975.09;;;18.09;80.75
56074;BME280;41950;55.840;37.442;2023-05-23T12:25:55;99964.38;;;18.13;80.81
56074;BME280;41950;55.840;37.442;2023-05-23T12:28:36;99978.41;;;18.33;80.85
56074;BME280;41950;55.840;37.442;2023-05-23T12:31:14;99949.38;;;18.36;81.16
56074;BME280;41950;55.840;37.442;2023-05-23T12:33:41;99961.31;;;18.62;80.33
56074;BME280;41950;55.840;37.442;2023-05-23T12:36:10;99942.19;;;18.78;79.66
56074;BME280;41950;55.840;37.442;2023-05-23T12:38:36;99942.31;;;18.94;79.15
56074;BME280;41950;55.840;37.442;2023-05-23T12:41:14;99952.94;;;19.29;78.28
56074;BME280;41950;55.840;37.442;2023-05-23T12:43:48;99932.03;;;19.43;77.34
56074;BME280;41950;55.840;37.442;2023-05-23T12:46:14;99942.00;;;19.55;77.02
56074;BME280;41950;55.840;37.442;2023-05-23T12:48:40;99945.19;;;19.79;76.04
56074;BME280;41950;55.840;37.442;2023-05-23T12:51:06;99949.53;;;19.80;75.38
56074;BME280;41950;55.840;37.442;2023-05-23T12:53:32;99943.63;;;19.75;74.62
56074;BME280;41950;55.840;37.442;2023-05-23T12:55:57;99917.94;;;19.44;74.81
56074;BME280;41950;55.840;37.442;2023-05-23T12:58:23;99904.84;;;19.42;74.87
56074;BME280;41950;55.840;37.442;2023-05-23T13:00:49;99945.09;;;19.63;74.98
56074;BME280;41950;55.840;37.442;2023-05-23T13:03:15;99920.53;;;19.45;74.56
56074;BME280;41950;55.840;37.442;2023-05-23T13:05:41;99942.06;;;19.54;74.19
56074;BME280;41950;55.840;37.442;2023-05-23T13:08:07;99894.66;;;19.36;74.45
56074;BME280;41950;55.840;37.442;2023-05-23T13:10:33;99895.09;;;19.44;73.78
56074;BME280;41950;55.840;37.442;2023-05-23T13:12:59;99919.00;;;19.59;73.81